sensor_id;sensor_type;location;lat;lon;timestamp;P1;P2;P0
47081;PMS5003;33066;49.296;14.470;2023-12-20T00:00:56;61;46;
47081;PMS5003;33066;49.296;14.470;2023-12-20T00:03:22;68;54;
47081;PMS5003;33066;49.296;14.470;2023-12-20T00:05:47;57;50;
47081;PMS5003;33066;49.296;14.470;2023-12-20T00:08:13;54;49;
47081;PMS5003;33066;49.296;14.470;2023-12-20T00:10:38;59;53;
47081;PMS5003;33066;49.296;14.470;2023-12-20T00:13:03;70;57;
47081;PMS5003;33066;49.296;14.470;2023-12-20T00:15:29;70;56;
47081;PMS5003;33066;49.296;14.470;2023-12-20T00:17:54;59;49;
47081;PMS5003;33066;49.296;14.470;2023-12-20T00:20:20;44;41;
47081;PMS5003;33066;49.296;14.470;2023-12-20T00:22:46;44;38;
47081;PMS5003;33066;49.296;14.470;2023-12-20T00:25:11;51;46;
47081;PMS5003;33066;49.296;14.470;2023-12-20T00:27:36;42;38;
47081;PMS5003;33066;49.296;14.470;2023-12-20T00:30:02;42;34;
47081;PMS5003;33066;49.296;14.470;2023-12-20T00:32:27;45;33;
47081;PMS5003;33066;49.296;14.470;2023-12-20T00:34:53;38;31;
47081;PMS5003;33066;49.296;14.470;2023-12-20T00:37:18;48;39;
47081;PMS5003;33066;49.296;14.470;2023-12-20T00:39:43;41;36;
47081;PMS5003;33066;49.296;14.470;2023-12-20T00:42:09;51;40;
47081;PMS5003;33066;49.296;14.470;2023-12-20T00:44:34;50;41;
47081;PMS5003;33066;49.296;14.470;2023-12-20T00:46:59;44;44;
47081;PMS5003;33066;49.296;14.470;2023-12-20T00:49:25;56;39;
47081;PMS5003;33066;49.296;14.470;2023-12-20T00:51:50;75;55;
47081;PMS5003;33066;49.296;14.470;2023-12-20T00:54:16;57;47;
47081;PMS5003;33066;49.296;14.470;2023-12-20T00:56:43;51;46;
47081;PMS5003;33066;49.296;14.470;2023-12-20T00:59:07;41;38;
47081;PMS5003;33066;49.296;14.470;2023-12-20T01:01:32;51;41;
47081;PMS5003;33066;49.296;14.470;2023-12-20T01:03:58;55;44;
47081;PMS5003;33066;49.296;14.470;2023-12-20T01:06:24;54;48;
47081;PMS5003;33066;49.296;14.470;2023-12-20T01:08:49;51;45;
47081;PMS5003;33066;49.296;14.470;2023-12-20T01:11:14;62;51;
47081;PMS5003;33066;49.296;14.470;2023-12-20T01:13:40;59;51;
47081;PMS5003;33066;49.296;14.470;2023-12-20T01:16:06;51;47;
47081;PMS5003;33066;49.296;14.470;2023-12-20T01:18:31;59;47;
47081;PMS5003;33066;49.296;14.470;2023-12-20T01:20:56;53;45;
47081;PMS5003;33066;49.296;14.470;2023-12-20T01:23:21;66;44;
47081;PMS5003;33066;49.296;14.470;2023-12-20T01:25:47;54;49;
47081;PMS5003;33066;49.296;14.470;2023-12-20T01:28:12;61;43;
47081;PMS5003;33066;49.296;14.470;2023-12-20T01:30:38;49;44;
47081;PMS5003;33066;49.296;14.470;2023-12-20T01:33:03;47;42;
47081;PMS5003;33066;49.296;14.470;2023-12-20T01:35:29;58;48;
47081;PMS5003;33066;49.296;14.470;2023-12-20T01:37:54;52;46;
47081;PMS5003;33066;49.296;14.470;2023-12-20T01:40:20;54;45;
47081;PMS5003;33066;49.296;14.470;2023-12-20T01:42:45;47;41;
47081;PMS5003;33066;49.296;14.470;2023-12-20T01:45:10;42;41;
47081;PMS5003;33066;49.296;14.470;2023-12-20T01:47:35;58;51;
47081;PMS5003;33066;49.296;14.470;2023-12-20T01:50:00;35;32;
47081;PMS5003;33066;49.296;14.470;2023-12-20T01:52:26;34;32;
47081;PMS5003;33066;49.296;14.470;2023-12-20T01:54:52;37;35;
47081;PMS5003;33066;49.296;14.470;2023-12-20T01:57:17;18;17;
47081;PMS5003;33066;49.296;14.470;2023-12-20T01:59:43;19;14;
47081;PMS5003;33066;49.296;14.470;2023-12-20T02:02:08;24;21;
47081;PMS5003;33066;49.296;14.470;2023-12-20T02:04:33;23;18;
47081;PMS5003;33066;49.296;14.470;2023-12-20T02:06:59;12;11;
47081;PMS5003;33066;49.296;14.470;2023-12-20T02:09:24;23;23;
47081;PMS5003;33066;49.296;14.470;2023-12-20T02:11:49;29;25;
47081;PMS5003;33066;49.296;14.470;2023-12-20T02:14:15;22;22;
47081;PMS5003;33066;49.296;14.470;2023-12-20T02:16:40;14;14;
47081;PMS5003;33066;49.296;14.470;2023-12-20T02:19:06;18;17;
47081;PMS5003;33066;49.296;14.470;2023-12-20T02:21:31;15;14;
47081;PMS5003;33066;49.296;14.470;2023-12-20T02:23:56;18;15;
47081;PMS5003;33066;49.296;14.470;2023-12-20T02:26:21;18;17;
47081;PMS5003;33066;49.296;14.470;2023-12-20T02:28:46;23;20;
47081;PMS5003;33066;49.296;14.470;2023-12-20T02:31:11;13;12;
47081;PMS5003;33066;49.296;14.470;2023-12-20T02:33:37;18;12;
47081;PMS5003;33066;49.296;14.470;2023-12-20T02:36:02;17;11;
47081;PMS5003;33066;49.296;14.470;2023-12-20T02:38:27;51;47;
47081;PMS5003;33066;49.296;14.470;2023-12-20T02:40:53;39;38;
47081;PMS5003;33066;49.296;14.470;2023-12-20T02:43:18;36;36;
47081;PMS5003;33066;49.296;14.470;2023-12-20T02:45:44;13;11;
47081;PMS5003;33066;49.296;14.470;2023-12-20T02:48:09;12;7;
47081;PMS5003;33066;49.296;14.470;2023-12-20T02:50:35;9;7;
47081;PMS5003;33066;49.296;14.470;2023-12-20T02:53:00;11;7;
47081;PMS5003;33066;49.296;14.470;2023-12-20T02:55:25;11;11;
47081;PMS5003;33066;49.296;14.470;2023-12-20T02:57:51;22;19;
47081;PMS5003;33066;49.296;14.470;2023-12-20T03:00:16;53;53;
47081;PMS5003;33066;49.296;14.470;2023-12-20T03:02:42;71;64;
47081;PMS5003;33066;49.296;14.470;2023-12-20T03:05:07;50;48;
47081;PMS5003;33066;49.296;14.470;2023-12-20T03:07:32;18;16;
47081;PMS5003;33066;49.296;14.470;2023-12-20T03:09:58;31;28;
47081;PMS5003;33066;49.296;14.470;2023-12-20T03:12:24;35;30;
47081;PMS5003;33066;49.296;14.470;2023-12-20T03:14:49;30;27;
47081;PMS5003;33066;49.296;14.470;2023-12-20T03:17:15;24;23;
47081;PMS5003;33066;49.296;14.470;2023-12-20T03:19:40;9;9;
47081;PMS5003;33066;49.296;14.470;2023-12-20T03:22:05;12;12;
47081;PMS5003;33066;49.296;14.470;2023-12-20T03:24:30;37;36;
47081;PMS5003;33066;49.296;14.470;2023-12-20T03:26:56;5;5;
47081;PMS5003;33066;49.296;14.470;2023-12-20T03:29:21;7;6;
47081;PMS5003;33066;49.296;14.470;2023-12-20T03:31:46;3;3;
47081;PMS5003;33066;49.296;14.470;2023-12-20T03:34:12;3;3;
47081;PMS5003;33066;49.296;14.470;2023-12-20T03:36:37;5;5;
47081;PMS5003;33066;49.296;14.470;2023-12-20T03:39:02;4;4;
47081;PMS5003;33066;49.296;14.470;2023-12-20T03:41:28;5;4;
47081;PMS5003;33066;49.296;14.470;2023-12-20T03:43:53;6;3;
47081;PMS5003;33066;49.296;14.470;2023-12-20T03:46:18;5;4;
47081;PMS5003;33066;49.296;14.470;2023-12-20T03:48:44;7;5;
47081;PMS5003;33066;49.296;14.470;2023-12-20T03:51:09;2;2;
47081;PMS5003;33066;49.296;14.470;2023-12-20T03:53:34;5;5;
47081;PMS5003;33066;49.296;14.470;2023-12-20T03:56:00;4;4;
47081;PMS5003;33066;49.296;14.470;2023-12-20T03:58:25;2;2;
47081;PMS5003;33066;49.296;14.470;2023-12-20T04:00:50;5;5;
47081;PMS5003;33066;49.296;14.470;2023-12-20T04:03:16;4;3;
47081;PMS5003;33066;49.296;14.470;2023-12-20T04:05:41;4;2;
47081;PMS5003;33066;49.296;14.470;2023-12-20T04:08:07;4;2;
47081;PMS5003;33066;49.296;14.470;2023-12-20T04:12:59;3;3;
47081;PMS5003;33066;49.296;14.470;2023-12-20T04:15:24;3;2;
47081;PMS5003;33066;49.296;14.470;2023-12-20T04:17:49;1;1;
47081;PMS5003;33066;49.296;14.470;2023-12-20T04:20:15;3;2;
47081;PMS5003;33066;49.296;14.470;2023-12-20T04:22:40;2;2;
47081;PMS5003;33066;49.296;14.470;2023-12-20T04:25:06;4;1;
47081;PMS5003;33066;49.296;14.470;2023-12-20T04:27:31;1;1;
47081;PMS5003;33066;49.296;14.470;2023-12-20T04:29:56;1;1;
47081;PMS5003;33066;49.296;14.470;2023-12-20T04:32:22;1;1;
47081;PMS5003;33066;49.296;14.470;2023-12-20T04:34:47;1;1;
47081;PMS5003;33066;49.296;14.470;2023-12-20T04:37:12;3;2;
47081;PMS5003;33066;49.296;14.470;2023-12-20T04:39:38;1;1;
47081;PMS5003;33066;49.296;14.470;2023-12-20T04:42:03;2;2;
47081;PMS5003;33066;49.296;14.470;2023-12-20T04:44:28;2;0;
47081;PMS5003;33066;49.296;14.470;2023-12-20T04:46:54;6;6;
47081;PMS5003;33066;49.296;14.470;2023-12-20T04:49:19;4;3;
47081;PMS5003;33066;49.296;14.470;2023-12-20T04:51:44;2;2;
47081;PMS5003;33066;49.296;14.470;2023-12-20T04:54:10;0;0;
47081;PMS5003;33066;49.296;14.470;2023-12-20T04:56:35;0;0;
47081;PMS5003;33066;49.296;14.470;2023-12-20T04:59:01;1;1;
47081;PMS5003;33066;49.296;14.470;2023-12-20T05:01:26;1;1;
47081;PMS5003;33066;49.296;14.470;2023-12-20T05:03:51;0;0;
47081;PMS5003;33066;49.296;14.470;2023-12-20T05:06:17;1;1;
47081;PMS5003;33066;49.296;14.470;2023-12-20T05:08:42;1;0;
47081;PMS5003;33066;49.296;14.470;2023-12-20T05:11:07;1;1;
47081;PMS5003;33066;49.296;14.470;2023-12-20T05:13:33;1;1;
47081;PMS5003;33066;49.296;14.470;2023-12-20T05:15:58;1;1;
47081;PMS5003;33066;49.296;14.470;2023-12-20T05:18:24;1;1;
47081;PMS5003;33066;49.296;14.470;2023-12-20T05:20:49;1;1;
47081;PMS5003;33066;49.296;14.470;2023-12-20T05:23:14;0;0;
47081;PMS5003;33066;49.296;14.470;2023-12-20T05:25:40;2;2;
47081;PMS5003;33066;49.296;14.470;2023-12-20T05:28:05;2;1;
47081;PMS5003;33066;49.296;14.470;2023-12-20T05:30:31;19;17;
47081;PMS5003;33066;49.296;14.470;2023-12-20T05:32:56;2;2;
47081;PMS5003;33066;49.296;14.470;2023-12-20T05:35:21;1;1;
47081;PMS5003;33066;49.296;14.470;2023-12-20T05:37:46;1;1;
47081;PMS5003;33066;49.296;14.470;2023-12-20T05:40:12;0;0;
47081;PMS5003;33066;49.296;14.470;2023-12-20T05:42:37;1;1;
47081;PMS5003;33066;49.296;14.470;2023-12-20T05:45:04;2;2;
47081;PMS5003;33066;49.296;14.470;2023-12-20T05:47:28;2;2;
47081;PMS5003;33066;49.296;14.470;2023-12-20T05:49:53;1;1;
47081;PMS5003;33066;49.296;14.470;2023-12-20T05:52:19;2;1;
47081;PMS5003;33066;49.296;14.470;2023-12-20T05:54:44;1;1;
47081;PMS5003;33066;49.296;14.470;2023-12-20T05:57:09;1;1;
47081;PMS5003;33066;49.296;14.470;2023-12-20T05:59:35;1;1;
47081;PMS5003;33066;49.296;14.470;2023-12-20T06:02:00;1;1;
47081;PMS5003;33066;49.296;14.470;2023-12-20T06:04:26;1;1;
47081;PMS5003;33066;49.296;14.470;2023-12-20T06:06:51;2;2;
47081;PMS5003;33066;49.296;14.470;2023-12-20T06:09:16;0;0;
47081;PMS5003;33066;49.296;14.470;2023-12-20T06:11:42;0;0;
47081;PMS5003;33066;49.296;14.470;2023-12-20T06:14:07;1;1;
47081;PMS5003;33066;49.296;14.470;2023-12-20T06:16:33;0;0;
47081;PMS5003;33066;49.296;14.470;2023-12-20T06:18:58;1;1;
47081;PMS5003;33066;49.296;14.470;2023-12-20T06:21:23;1;1;
47081;PMS5003;33066;49.296;14.470;2023-12-20T06:23:49;0;0;
47081;PMS5003;33066;49.296;14.470;2023-12-20T06:26:14;2;1;
47081;PMS5003;33066;49.296;14.470;2023-12-20T06:28:40;1;1;
47081;PMS5003;33066;49.296;14.470;2023-12-20T06:31:05;0;0;
47081;PMS5003;33066;49.296;14.470;2023-12-20T06:33:30;1;1;
47081;PMS5003;33066;49.296;14.470;2023-12-20T06:35:56;0;0;
47081;PMS5003;33066;49.296;14.470;2023-12-20T06:38:21;2;1;
47081;PMS5003;33066;49.296;14.470;2023-12-20T06:40:46;1;1;
47081;PMS5003;33066;49.296;14.470;2023-12-20T06:43:12;1;1;
47081;PMS5003;33066;49.296;14.470;2023-12-20T06:45:37;1;1;
47081;PMS5003;33066;49.296;14.470;2023-12-20T06:48:03;3;3;
47081;PMS5003;33066;49.296;14.470;2023-12-20T06:50:28;2;2;
47081;PMS5003;33066;49.296;14.470;2023-12-20T06:52:53;12;6;
47081;PMS5003;33066;49.296;14.470;2023-12-20T06:55:19;16;8;
47081;PMS5003;33066;49.296;14.470;2023-12-20T06:57:44;1;1;
47081;PMS5003;33066;49.296;14.470;2023-12-20T07:00:10;4;3;
47081;PMS5003;33066;49.296;14.470;2023-12-20T07:02:34;5;3;
47081;PMS5003;33066;49.296;14.470;2023-12-20T07:04:59;2;1;
47081;PMS5003;33066;49.296;14.470;2023-12-20T07:07:25;3;1;
47081;PMS5003;33066;49.296;14.470;2023-12-20T07:09:50;1;1;
47081;PMS5003;33066;49.296;14.470;2023-12-20T07:12:16;1;1;
47081;PMS5003;33066;49.296;14.470;2023-12-20T07:14:41;1;1;
47081;PMS5003;33066;49.296;14.470;2023-12-20T07:17:06;0;0;
47081;PMS5003;33066;49.296;14.470;2023-12-20T07:19:32;1;1;
47081;PMS5003;33066;49.296;14.470;2023-12-20T07:21:57;2;1;
47081;PMS5003;33066;49.296;14.470;2023-12-20T07:24:22;0;0;
47081;PMS5003;33066;49.296;14.470;2023-12-20T07:26:48;1;1;
47081;PMS5003;33066;49.296;14.470;2023-12-20T07:29:13;3;2;
47081;PMS5003;33066;49.296;14.470;2023-12-20T07:31:39;2;1;
47081;PMS5003;33066;49.296;14.470;2023-12-20T07:34:04;2;1;
47081;PMS5003;33066;49.296;14.470;2023-12-20T07:36:30;1;1;
47081;PMS5003;33066;49.296;14.470;2023-12-20T07:38:55;2;1;
47081;PMS5003;33066;49.296;14.470;2023-12-20T07:41:20;2;1;
47081;PMS5003;33066;49.296;14.470;2023-12-20T07:43:46;1;1;
47081;PMS5003;33066;49.296;14.470;2023-12-20T07:46:11;1;1;
47081;PMS5003;33066;49.296;14.470;2023-12-20T07:48:37;1;1;
47081;PMS5003;33066;49.296;14.470;2023-12-20T07:51:02;0;0;
47081;PMS5003;33066;49.296;14.470;2023-12-20T07:53:27;0;0;
47081;PMS5003;33066;49.296;14.470;2023-12-20T07:55:53;4;2;
47081;PMS5003;33066;49.296;14.470;2023-12-20T07:58:18;1;1;
47081;PMS5003;33066;49.296;14.470;2023-12-20T08:00:44;1;1;
47081;PMS5003;33066;49.296;14.470;2023-12-20T08:03:09;4;3;
47081;PMS5003;33066;49.296;14.470;2023-12-20T08:05:34;1;1;
47081;PMS5003;33066;49.296;14.470;2023-12-20T08:08:00;1;1;
47081;PMS5003;33066;49.296;14.470;2023-12-20T08:10:25;2;2;
47081;PMS5003;33066;49.296;14.470;2023-12-20T08:12:51;3;2;
47081;PMS5003;33066;49.296;14.470;2023-12-20T08:15:16;3;3;
47081;PMS5003;33066;49.296;14.470;2023-12-20T08:17:41;1;1;
47081;PMS5003;33066;49.296;14.470;2023-12-20T08:20:07;2;2;
47081;PMS5003;33066;49.296;14.470;2023-12-20T08:22:32;2;2;
47081;PMS5003;33066;49.296;14.470;2023-12-20T08:24:58;1;1;
47081;PMS5003;33066;49.296;14.470;2023-12-20T08:27:23;2;2;
47081;PMS5003;33066;49.296;14.470;2023-12-20T08:29:49;0;0;
47081;PMS5003;33066;49.296;14.470;2023-12-20T08:32:14;1;1;
47081;PMS5003;33066;49.296;14.470;2023-12-20T08:34:39;1;1;
47081;PMS5003;33066;49.296;14.470;2023-12-20T08:37:05;1;1;
47081;PMS5003;33066;49.296;14.470;2023-12-20T08:39:30;1;1;
47081;PMS5003;33066;49.296;14.470;2023-12-20T08:41:55;2;2;
47081;PMS5003;33066;49.296;14.470;2023-12-20T08:44:21;0;0;
47081;PMS5003;33066;49.296;14.470;2023-12-20T08:46:46;2;1;
47081;PMS5003;33066;49.296;14.470;2023-12-20T08:49:12;1;1;
47081;PMS5003;33066;49.296;14.470;2023-12-20T08:51:37;1;1;
47081;PMS5003;33066;49.296;14.470;2023-12-20T08:54:02;2;2;
47081;PMS5003;33066;49.296;14.470;2023-12-20T08:56:28;1;1;
47081;PMS5003;33066;49.296;14.470;2023-12-20T08:58:53;2;2;
47081;PMS5003;33066;49.296;14.470;2023-12-20T09:01:19;0;0;
47081;PMS5003;33066;49.296;14.470;2023-12-20T09:03:44;0;0;
47081;PMS5003;33066;49.296;14.470;2023-12-20T09:06:09;2;2;
47081;PMS5003;33066;49.296;14.470;2023-12-20T09:08:35;0;0;
47081;PMS5003;33066;49.296;14.470;2023-12-20T09:11:00;0;0;
47081;PMS5003;33066;49.296;14.470;2023-12-20T09:13:25;0;0;
47081;PMS5003;33066;49.296;14.470;2023-12-20T09:15:51;1;0;
47081;PMS5003;33066;49.296;14.470;2023-12-20T09:18:16;1;1;
47081;PMS5003;33066;49.296;14.470;2023-12-20T09:20:42;0;0;
47081;PMS5003;33066;49.296;14.470;2023-12-20T09:23:07;0;0;
47081;PMS5003;33066;49.296;14.470;2023-12-20T09:25:32;0;0;
47081;PMS5003;33066;49.296;14.470;2023-12-20T09:27:58;0;0;
47081;PMS5003;33066;49.296;14.470;2023-12-20T09:30:23;0;0;
47081;PMS5003;33066;49.296;14.470;2023-12-20T09:32:49;1;1;
47081;PMS5003;33066;49.296;14.470;2023-12-20T09:35:14;0;0;
47081;PMS5003;33066;49.296;14.470;2023-12-20T09:37:39;2;0;
47081;PMS5003;33066;49.296;14.470;2023-12-20T09:40:05;2;2;
47081;PMS5003;33066;49.296;14.470;2023-12-20T09:42:33;0;0;
47081;PMS5003;33066;49.296;14.470;2023-12-20T09:44:56;0;0;
47081;PMS5003;33066;49.296;14.470;2023-12-20T09:47:21;0;0;
47081;PMS5003;33066;49.296;14.470;2023-12-20T09:49:46;1;1;
47081;PMS5003;33066;49.296;14.470;2023-12-20T09:52:12;1;1;
47081;PMS5003;33066;49.296;14.470;2023-12-20T09:54:37;0;0;
47081;PMS5003;33066;49.296;14.470;2023-12-20T09:57:03;0;0;
47081;PMS5003;33066;49.296;14.470;2023-12-20T09:59:28;2;1;
47081;PMS5003;33066;49.296;14.470;2023-12-20T10:01:54;1;1;
47081;PMS5003;33066;49.296;14.470;2023-12-20T10:04:19;2;1;
47081;PMS5003;33066;49.296;14.470;2023-12-20T10:06:46;4;3;
47081;PMS5003;33066;49.296;14.470;2023-12-20T10:09:10;3;2;
47081;PMS5003;33066;49.296;14.470;2023-12-20T10:11:35;4;4;
47081;PMS5003;33066;49.296;14.470;2023-12-20T10:14:00;3;3;
47081;PMS5003;33066;49.296;14.470;2023-12-20T10:16:25;9;6;
47081;PMS5003;33066;49.296;14.470;2023-12-20T10:18:52;5;3;
47081;PMS5003;33066;49.296;14.470;2023-12-20T10:21:16;2;2;
47081;PMS5003;33066;49.296;14.470;2023-12-20T10:23:41;5;3;
47081;PMS5003;33066;49.296;14.470;2023-12-20T10:26:07;1;1;
47081;PMS5003;33066;49.296;14.470;2023-12-20T10:28:33;0;0;
47081;PMS5003;33066;49.296;14.470;2023-12-20T10:30:57;1;1;
47081;PMS5003;33066;49.296;14.470;2023-12-20T10:33:24;0;0;
47081;PMS5003;33066;49.296;14.470;2023-12-20T10:35:48;0;0;
47081;PMS5003;33066;49.296;14.470;2023-12-20T10:38:14;1;1;
47081;PMS5003;33066;49.296;14.470;2023-12-20T10:40:39;0;0;
47081;PMS5003;33066;49.296;14.470;2023-12-20T10:43:05;0;0;
47081;PMS5003;33066;49.296;14.470;2023-12-20T10:45:30;1;1;
47081;PMS5003;33066;49.296;14.470;2023-12-20T10:47:55;0;0;
47081;PMS5003;33066;49.296;14.470;2023-12-20T10:50:21;2;2;
47081;PMS5003;33066;49.296;14.470;2023-12-20T10:52:46;2;1;
47081;PMS5003;33066;49.296;14.470;2023-12-20T10:55:11;1;1;
47081;PMS5003;33066;49.296;14.470;2023-12-20T10:57:37;1;1;
47081;PMS5003;33066;49.296;14.470;2023-12-20T11:00:03;1;1;
47081;PMS5003;33066;49.296;14.470;2023-12-20T11:02:28;2;1;
47081;PMS5003;33066;49.296;14.470;2023-12-20T11:04:55;5;3;
47081;PMS5003;33066;49.296;14.470;2023-12-20T11:07:21;5;3;
47081;PMS5003;33066;49.296;14.470;2023-12-20T11:09:45;1;1;
47081;PMS5003;33066;49.296;14.470;2023-12-20T11:12:10;0;0;
47081;PMS5003;33066;49.296;14.470;2023-12-20T11:14:37;1;1;
47081;PMS5003;33066;49.296;14.470;2023-12-20T11:17:06;1;1;
47081;PMS5003;33066;49.296;14.470;2023-12-20T11:19:25;0;0;
47081;PMS5003;33066;49.296;14.470;2023-12-20T11:21:51;2;2;
47081;PMS5003;33066;49.296;14.470;2023-12-20T11:24:17;1;1;
47081;PMS5003;33066;49.296;14.470;2023-12-20T11:26:46;3;3;
47081;PMS5003;33066;49.296;14.470;2023-12-20T11:36:23;5;2;
47081;PMS5003;33066;49.296;14.470;2023-12-20T11:38:54;2;2;
47081;PMS5003;33066;49.296;14.470;2023-12-20T11:41:14;2;2;
47081;PMS5003;33066;49.296;14.470;2023-12-20T11:43:39;4;3;
47081;PMS5003;33066;49.296;14.470;2023-12-20T11:46:05;2;2;
47081;PMS5003;33066;49.296;14.470;2023-12-20T11:48:30;2;2;
47081;PMS5003;33066;49.296;14.470;2023-12-20T11:50:56;3;2;
47081;PMS5003;33066;49.296;14.470;2023-12-20T11:53:21;2;2;
47081;PMS5003;33066;49.296;14.470;2023-12-20T11:55:47;2;2;
47081;PMS5003;33066;49.296;14.470;2023-12-20T11:58:12;5;4;
47081;PMS5003;33066;49.296;14.470;2023-12-20T12:00:37;2;2;
47081;PMS5003;33066;49.296;14.470;2023-12-20T12:03:03;4;3;
47081;PMS5003;33066;49.296;14.470;2023-12-20T12:05:28;1;1;
47081;PMS5003;33066;49.296;14.470;2023-12-20T12:07:53;2;1;
47081;PMS5003;33066;49.296;14.470;2023-12-20T12:10:19;1;1;
47081;PMS5003;33066;49.296;14.470;2023-12-20T12:12:44;1;1;
47081;PMS5003;33066;49.296;14.470;2023-12-20T12:15:10;2;2;
47081;PMS5003;33066;49.296;14.470;2023-12-20T12:17:35;4;2;
47081;PMS5003;33066;49.296;14.470;2023-12-20T12:20:02;1;1;
47081;PMS5003;33066;49.296;14.470;2023-12-20T12:22:26;4;2;
47081;PMS5003;33066;49.296;14.470;2023-12-20T12:24:51;2;2;
47081;PMS5003;33066;49.296;14.470;2023-12-20T12:27:16;3;3;
47081;PMS5003;33066;49.296;14.470;2023-12-20T12:32:08;2;2;
47081;PMS5003;33066;49.296;14.470;2023-12-20T12:34:33;2;2;
47081;PMS5003;33066;49.296;14.470;2023-12-20T12:36:58;0;0;
47081;PMS5003;33066;49.296;14.470;2023-12-20T12:39:23;2;2;
47081;PMS5003;33066;49.296;14.470;2023-12-20T12:41:49;3;1;
47081;PMS5003;33066;49.296;14.470;2023-12-20T12:44:14;2;2;
47081;PMS5003;33066;49.296;14.470;2023-12-20T12:46:39;1;1;
47081;PMS5003;33066;49.296;14.470;2023-12-20T12:49:05;1;1;
47081;PMS5003;33066;49.296;14.470;2023-12-20T12:51:30;2;2;
47081;PMS5003;33066;49.296;14.470;2023-12-20T12:53:56;2;2;
47081;PMS5003;33066;49.296;14.470;2023-12-20T12:56:21;2;1;
47081;PMS5003;33066;49.296;14.470;2023-12-20T12:58:46;2;2;
47081;PMS5003;33066;49.296;14.470;2023-12-20T13:01:12;1;1;
47081;PMS5003;33066;49.296;14.470;2023-12-20T13:03:37;1;1;
47081;PMS5003;33066;49.296;14.470;2023-12-20T13:06:02;0;0;
47081;PMS5003;33066;49.296;14.470;2023-12-20T13:08:27;1;1;
47081;PMS5003;33066;49.296;14.470;2023-12-20T13:10:53;0;0;
47081;PMS5003;33066;49.296;14.470;2023-12-20T13:13:18;0;0;
47081;PMS5003;33066;49.296;14.470;2023-12-20T13:15:43;0;0;
47081;PMS5003;33066;49.296;14.470;2023-12-20T13:18:08;1;1;
47081;PMS5003;33066;49.296;14.470;2023-12-20T13:20:33;1;1;
47081;PMS5003;33066;49.296;14.470;2023-12-20T13:22:59;5;2;
47081;PMS5003;33066;49.296;14.470;2023-12-20T13:25:24;6;6;
47081;PMS5003;33066;49.296;14.470;2023-12-20T13:27:50;4;3;
47081;PMS5003;33066;49.296;14.470;2023-12-20T13:30:15;7;4;
47081;PMS5003;33066;49.296;14.470;2023-12-20T13:32:40;1;1;
47081;PMS5003;33066;49.296;14.470;2023-12-20T13:35:06;1;1;
47081;PMS5003;33066;49.296;14.470;2023-12-20T13:37:31;3;3;
47081;PMS5003;33066;49.296;14.470;2023-12-20T13:39:56;2;2;
47081;PMS5003;33066;49.296;14.470;2023-12-20T13:42:22;8;3;
47081;PMS5003;33066;49.296;14.470;2023-12-20T13:44:47;3;2;
47081;PMS5003;33066;49.296;14.470;2023-12-20T13:47:13;4;4;
47081;PMS5003;33066;49.296;14.470;2023-12-20T13:49:38;1;1;
47081;PMS5003;33066;49.296;14.470;2023-12-20T13:52:03;2;2;
47081;PMS5003;33066;49.296;14.470;2023-12-20T13:54:29;4;3;
47081;PMS5003;33066;49.296;14.470;2023-12-20T13:56:54;4;3;
47081;PMS5003;33066;49.296;14.470;2023-12-20T13:59:19;2;2;
47081;PMS5003;33066;49.296;14.470;2023-12-20T14:01:45;2;2;
47081;PMS5003;33066;49.296;14.470;2023-12-20T14:04:10;2;2;
47081;PMS5003;33066;49.296;14.470;2023-12-20T14:06:36;8;6;
47081;PMS5003;33066;49.296;14.470;2023-12-20T14:09:01;3;3;
47081;PMS5003;33066;49.296;14.470;2023-12-20T14:11:27;2;2;
47081;PMS5003;33066;49.296;14.470;2023-12-20T14:13:52;4;3;
47081;PMS5003;33066;49.296;14.470;2023-12-20T14:16:17;2;2;
47081;PMS5003;33066;49.296;14.470;2023-12-20T14:18:43;3;3;
47081;PMS5003;33066;49.296;14.470;2023-12-20T14:21:08;4;3;
47081;PMS5003;33066;49.296;14.470;2023-12-20T14:23:33;2;1;
47081;PMS5003;33066;49.296;14.470;2023-12-20T14:25:59;2;2;
47081;PMS5003;33066;49.296;14.470;2023-12-20T14:28:24;1;1;
47081;PMS5003;33066;49.296;14.470;2023-12-20T14:30:49;0;0;
47081;PMS5003;33066;49.296;14.470;2023-12-20T14:33:15;1;1;
47081;PMS5003;33066;49.296;14.470;2023-12-20T14:35:40;1;1;
47081;PMS5003;33066;49.296;14.470;2023-12-20T14:38:05;4;0;
47081;PMS5003;33066;49.296;14.470;2023-12-20T14:40:31;1;1;
47081;PMS5003;33066;49.296;14.470;2023-12-20T14:42:56;0;0;
47081;PMS5003;33066;49.296;14.470;2023-12-20T14:45:22;1;1;
47081;PMS5003;33066;49.296;14.470;2023-12-20T14:47:47;5;5;
47081;PMS5003;33066;49.296;14.470;2023-12-20T14:50:12;144;111;
47081;PMS5003;33066;49.296;14.470;2023-12-20T14:52:38;2;2;
47081;PMS5003;33066;49.296;14.470;2023-12-20T14:55:04;1;1;
47081;PMS5003;33066;49.296;14.470;2023-12-20T14:57:29;6;5;
47081;PMS5003;33066;49.296;14.470;2023-12-20T14:59:54;5;3;
47081;PMS5003;33066;49.296;14.470;2023-12-20T15:02:20;10;6;
47081;PMS5003;33066;49.296;14.470;2023-12-20T15:04:45;5;4;
47081;PMS5003;33066;49.296;14.470;2023-12-20T15:07:11;4;3;
47081;PMS5003;33066;49.296;14.470;2023-12-20T15:09:36;1;1;
47081;PMS5003;33066;49.296;14.470;2023-12-20T15:12:01;1;1;
47081;PMS5003;33066;49.296;14.470;2023-12-20T15:14:26;104;96;
47081;PMS5003;33066;49.296;14.470;2023-12-20T15:16:52;2;2;
47081;PMS5003;33066;49.296;14.470;2023-12-20T15:19:17;0;0;
47081;PMS5003;33066;49.296;14.470;2023-12-20T15:21:42;1;1;
47081;PMS5003;33066;49.296;14.470;2023-12-20T15:24:08;4;2;
47081;PMS5003;33066;49.296;14.470;2023-12-20T15:26:33;1;1;
47081;PMS5003;33066;49.296;14.470;2023-12-20T15:28:59;4;4;
47081;PMS5003;33066;49.296;14.470;2023-12-20T15:31:24;9;5;
47081;PMS5003;33066;49.296;14.470;2023-12-20T15:33:50;3;2;
47081;PMS5003;33066;49.296;14.470;2023-12-20T15:36:16;11;5;
47081;PMS5003;33066;49.296;14.470;2023-12-20T15:38:41;2;2;
47081;PMS5003;33066;49.296;14.470;2023-12-20T15:41:06;11;4;
47081;PMS5003;33066;49.296;14.470;2023-12-20T15:43:32;5;3;
47081;PMS5003;33066;49.296;14.470;2023-12-20T15:45:57;9;8;
47081;PMS5003;33066;49.296;14.470;2023-12-20T15:48:23;5;5;
47081;PMS5003;33066;49.296;14.470;2023-12-20T15:50:48;9;8;
47081;PMS5003;33066;49.296;14.470;2023-12-20T15:53:14;7;5;
47081;PMS5003;33066;49.296;14.470;2023-12-20T15:55:39;7;4;
47081;PMS5003;33066;49.296;14.470;2023-12-20T15:58:05;7;5;
47081;PMS5003;33066;49.296;14.470;2023-12-20T16:00:30;24;23;
47081;PMS5003;33066;49.296;14.470;2023-12-20T16:02:55;2;2;
47081;PMS5003;33066;49.296;14.470;2023-12-20T16:05:21;2;2;
47081;PMS5003;33066;49.296;14.470;2023-12-20T16:07:46;2;2;
47081;PMS5003;33066;49.296;14.470;2023-12-20T16:10:11;15;13;
47081;PMS5003;33066;49.296;14.470;2023-12-20T16:12:37;3;2;
47081;PMS5003;33066;49.296;14.470;2023-12-20T16:15:02;2;2;
47081;PMS5003;33066;49.296;14.470;2023-12-20T16:17:28;2;2;
47081;PMS5003;33066;49.296;14.470;2023-12-20T16:19:53;2;2;
47081;PMS5003;33066;49.296;14.470;2023-12-20T16:22:18;4;4;
47081;PMS5003;33066;49.296;14.470;2023-12-20T16:24:44;5;5;